sensor_id;sensor_type;location;lat;lon;timestamp;temperature;humidity
9971;DHT22;5026;51.494;11.974;2022-08-30T00:02:40;16.60;99.90
9971;DHT22;5026;51.494;11.974;2022-08-30T00:05:08;16.60;99.90
9971;DHT22;5026;51.494;11.974;2022-08-30T00:07:35;16.60;99.90
9971;DHT22;5026;51.494;11.974;2022-08-30T00:10:05;16.50;99.90
9971;DHT22;5026;51.494;11.974;2022-08-30T00:12:32;16.50;99.90
9971;DHT22;5026;51.494;11.974;2022-08-30T00:14:59;16.50;99.90
9971;DHT22;5026;51.494;11.974;2022-08-30T00:17:26;16.40;99.90
9971;DHT22;5026;51.494;11.974;2022-08-30T00:19:53;16.40;99.90
9971;DHT22;5026;51.494;11.974;2022-08-30T00:22:20;16.40;99.90
9971;DHT22;5026;51.494;11.974;2022-08-30T00:24:47;16.30;99.90
9971;DHT22;5026;51.494;11.974;2022-08-30T00:27:16;16.30;99.90
9971;DHT22;5026;51.494;11.974;2022-08-30T00:29:43;16.30;99.90
9971;DHT22;5026;51.494;11.974;2022-08-30T00:32:11;16.20;99.90
9971;DHT22;5026;51.494;11.974;2022-08-30T00:34:38;16.10;99.90
9971;DHT22;5026;51.494;11.974;2022-08-30T00:37:05;16.10;99.90
9971;DHT22;5026;51.494;11.974;2022-08-30T00:39:32;16.00;99.90
9971;DHT22;5026;51.494;11.974;2022-08-30T00:41:59;16.00;99.90
9971;DHT22;5026;51.494;11.974;2022-08-30T00:44:27;16.00;99.90
9971;DHT22;5026;51.494;11.974;2022-08-30T00:46:54;16.00;99.90
9971;DHT22;5026;51.494;11.974;2022-08-30T00:49:21;15.90;99.90
9971;DHT22;5026;51.494;11.974;2022-08-30T00:51:48;15.90;99.90
9971;DHT22;5026;51.494;11.974;2022-08-30T00:54:15;15.90;99.90
9971;DHT22;5026;51.494;11.974;2022-08-30T00:56:43;15.80;99.90
9971;DHT22;5026;51.494;11.974;2022-08-30T00:59:10;15.90;99.90
9971;DHT22;5026;51.494;11.974;2022-08-30T01:01:38;15.80;99.90
9971;DHT22;5026;51.494;11.974;2022-08-30T01:04:07;15.80;99.90
9971;DHT22;5026;51.494;11.974;2022-08-30T01:06:35;15.70;99.90
9971;DHT22;5026;51.494;11.974;2022-08-30T01:09:04;15.70;99.90
9971;DHT22;5026;51.494;11.974;2022-08-30T01:11:32;15.60;99.90
9971;DHT22;5026;51.494;11.974;2022-08-30T01:14:00;16.50;99.90
9971;DHT22;5026;51.494;11.974;2022-08-30T01:16:30;15.60;99.90
9971;DHT22;5026;51.494;11.974;2022-08-30T01:18:59;15.50;99.90
9971;DHT22;5026;51.494;11.974;2022-08-30T01:21:31;15.50;99.90
9971;DHT22;5026;51.494;11.974;2022-08-30T01:24:01;15.50;99.90
9971;DHT22;5026;51.494;11.974;2022-08-30T01:26:30;15.40;99.90
9971;DHT22;5026;51.494;11.974;2022-08-30T01:29:00;16.00;99.90
9971;DHT22;5026;51.494;11.974;2022-08-30T01:31:28;15.50;99.90
9971;DHT22;5026;51.494;11.974;2022-08-30T01:33:55;15.40;99.90
9971;DHT22;5026;51.494;11.974;2022-08-30T01:36:23;17.10;99.90
9971;DHT22;5026;51.494;11.974;2022-08-30T01:38:52;15.40;99.90
9971;DHT22;5026;51.494;11.974;2022-08-30T01:41:22;15.30;99.90
9971;DHT22;5026;51.494;11.974;2022-08-30T01:43:52;15.30;99.90
9971;DHT22;5026;51.494;11.974;2022-08-30T01:46:22;15.30;99.90
9971;DHT22;5026;51.494;11.974;2022-08-30T01:48:51;15.20;99.90
9971;DHT22;5026;51.494;11.974;2022-08-30T01:51:19;15.20;99.90
9971;DHT22;5026;51.494;11.974;2022-08-30T01:53:46;15.10;99.90
9971;DHT22;5026;51.494;11.974;2022-08-30T01:56:13;15.10;99.90
9971;DHT22;5026;51.494;11.974;2022-08-30T01:58:42;15.10;99.90
9971;DHT22;5026;51.494;11.974;2022-08-30T02:01:12;15.10;99.90
9971;DHT22;5026;51.494;11.974;2022-08-30T02:03:42;15.10;99.90
9971;DHT22;5026;51.494;11.974;2022-08-30T02:06:12;15.00;99.90
9971;DHT22;5026;51.494;11.974;2022-08-30T02:08:40;15.00;99.90
9971;DHT22;5026;51.494;11.974;2022-08-30T02:11:08;15.00;99.90
9971;DHT22;5026;51.494;11.974;2022-08-30T02:13:35;14.90;99.90
9971;DHT22;5026;51.494;11.974;2022-08-30T02:16:04;14.90;99.90
9971;DHT22;5026;51.494;11.974;2022-08-30T02:18:33;14.90;99.90
9971;DHT22;5026;51.494;11.974;2022-08-30T02:21:00;14.90;99.90
9971;DHT22;5026;51.494;11.974;2022-08-30T02:23:27;14.90;99.90
9971;DHT22;5026;51.494;11.974;2022-08-30T02:25:54;14.90;99.90
9971;DHT22;5026;51.494;11.974;2022-08-30T02:28:21;14.90;99.90
9971;DHT22;5026;51.494;11.974;2022-08-30T02:30:48;14.90;99.90
9971;DHT22;5026;51.494;11.974;2022-08-30T02:33:16;14.90;99.90
9971;DHT22;5026;51.494;11.974;2022-08-30T02:35:43;14.90;99.90
9971;DHT22;5026;51.494;11.974;2022-08-30T02:38:11;14.90;99.90
9971;DHT22;5026;51.494;11.974;2022-08-30T02:40:38;14.90;99.90
9971;DHT22;5026;51.494;11.974;2022-08-30T02:43:05;14.90;99.90
9971;DHT22;5026;51.494;11.974;2022-08-30T02:45:32;14.90;99.90
9971;DHT22;5026;51.494;11.974;2022-08-30T02:47:59;14.80;99.90
9971;DHT22;5026;51.494;11.974;2022-08-30T02:50:27;14.80;99.90
9971;DHT22;5026;51.494;11.974;2022-08-30T02:52:55;14.70;99.90
9971;DHT22;5026;51.494;11.974;2022-08-30T02:55:22;14.70;99.90
9971;DHT22;5026;51.494;11.974;2022-08-30T02:57:49;14.70;99.90
9971;DHT22;5026;51.494;11.974;2022-08-30T03:00:18;14.70;99.90
9971;DHT22;5026;51.494;11.974;2022-08-30T03:02:46;14.60;99.90
9971;DHT22;5026;51.494;11.974;2022-08-30T03:05:14;14.60;99.90
9971;DHT22;5026;51.494;11.974;2022-08-30T03:07:43;14.60;99.90
9971;DHT22;5026;51.494;11.974;2022-08-30T03:10:13;14.60;99.90
9971;DHT22;5026;51.494;11.974;2022-08-30T03:12:40;15.40;99.90
9971;DHT22;5026;51.494;11.974;2022-08-30T03:15:09;14.50;99.90
9971;DHT22;5026;51.494;11.974;2022-08-30T03:17:37;14.60;99.90
9971;DHT22;5026;51.494;11.974;2022-08-30T03:20:06;14.60;99.90
9971;DHT22;5026;51.494;11.974;2022-08-30T03:22:33;14.70;99.90
9971;DHT22;5026;51.494;11.974;2022-08-30T03:25:02;14.70;99.90
9971;DHT22;5026;51.494;11.974;2022-08-30T03:27:29;14.80;99.90
9971;DHT22;5026;51.494;11.974;2022-08-30T03:29:56;14.80;99.90
9971;DHT22;5026;51.494;11.974;2022-08-30T03:32:23;14.90;99.90
9971;DHT22;5026;51.494;11.974;2022-08-30T03:34:50;14.10;99.90
9971;DHT22;5026;51.494;11.974;2022-08-30T03:37:17;14.90;99.90
9971;DHT22;5026;51.494;11.974;2022-08-30T03:39:45;14.90;99.90
9971;DHT22;5026;51.494;11.974;2022-08-30T03:42:13;14.90;99.90
9971;DHT22;5026;51.494;11.974;2022-08-30T03:44:40;14.80;99.90
9971;DHT22;5026;51.494;11.974;2022-08-30T03:47:07;14.80;99.90
9971;DHT22;5026;51.494;11.974;2022-08-30T03:49:34;14.80;99.90
9971;DHT22;5026;51.494;11.974;2022-08-30T03:52:02;14.80;99.90
9971;DHT22;5026;51.494;11.974;2022-08-30T03:54:29;14.80;99.90
9971;DHT22;5026;51.494;11.974;2022-08-30T03:56:56;14.80;99.90
9971;DHT22;5026;51.494;11.974;2022-08-30T03:59:24;14.80;99.90
9971;DHT22;5026;51.494;11.974;2022-08-30T04:01:52;14.80;99.90
9971;DHT22;5026;51.494;11.974;2022-08-30T04:04:18;14.70;99.90
9971;DHT22;5026;51.494;11.974;2022-08-30T04:06:45;14.70;99.90
9971;DHT22;5026;51.494;11.974;2022-08-30T04:09:12;14.70;99.90
9971;DHT22;5026;51.494;11.974;2022-08-30T04:11:39;14.70;99.90
9971;DHT22;5026;51.494;11.974;2022-08-30T04:14:06;14.70;99.90
9971;DHT22;5026;51.494;11.974;2022-08-30T04:16:35;14.70;99.90
9971;DHT22;5026;51.494;11.974;2022-08-30T04:19:02;14.80;99.90
9971;DHT22;5026;51.494;11.974;2022-08-30T04:21:29;14.70;99.90
9971;DHT22;5026;51.494;11.974;2022-08-30T04:23:56;14.70;99.90
9971;DHT22;5026;51.494;11.974;2022-08-30T04:26:24;14.70;99.90
9971;DHT22;5026;51.494;11.974;2022-08-30T04:28:52;14.70;99.90
9971;DHT22;5026;51.494;11.974;2022-08-30T04:31:19;14.80;99.90
9971;DHT22;5026;51.494;11.974;2022-08-30T04:33:47;15.90;99.90
9971;DHT22;5026;51.494;11.974;2022-08-30T04:36:14;15.90;99.90
9971;DHT22;5026;51.494;11.974;2022-08-30T04:38:41;14.80;99.90
9971;DHT22;5026;51.494;11.974;2022-08-30T04:41:10;14.80;99.90
9971;DHT22;5026;51.494;11.974;2022-08-30T04:43:41;14.80;99.90
9971;DHT22;5026;51.494;11.974;2022-08-30T04:46:09;14.80;99.90
9971;DHT22;5026;51.494;11.974;2022-08-30T04:48:36;14.90;99.90
9971;DHT22;5026;51.494;11.974;2022-08-30T04:51:06;14.80;99.90
9971;DHT22;5026;51.494;11.974;2022-08-30T04:53:33;14.80;99.90
9971;DHT22;5026;51.494;11.974;2022-08-30T04:58:28;15.00;99.90
9971;DHT22;5026;51.494;11.974;2022-08-30T05:00:55;15.00;99.90
9971;DHT22;5026;51.494;11.974;2022-08-30T05:03:22;15.00;99.90
9971;DHT22;5026;51.494;11.974;2022-08-30T05:05:49;15.00;99.90
9971;DHT22;5026;51.494;11.974;2022-08-30T05:08:19;15.00;99.90
9971;DHT22;5026;51.494;11.974;2022-08-30T05:10:48;15.00;99.90
9971;DHT22;5026;51.494;11.974;2022-08-30T05:13:17;15.10;99.90
9971;DHT22;5026;51.494;11.974;2022-08-30T05:15:45;15.10;99.90
9971;DHT22;5026;51.494;11.974;2022-08-30T05:18:12;15.20;99.90
9971;DHT22;5026;51.494;11.974;2022-08-30T05:20:41;15.30;99.90
9971;DHT22;5026;51.494;11.974;2022-08-30T05:25:39;15.40;99.90
9971;DHT22;5026;51.494;11.974;2022-08-30T05:30:35;15.60;99.90
9971;DHT22;5026;51.494;11.974;2022-08-30T05:33:08;15.70;99.90
9971;DHT22;5026;51.494;11.974;2022-08-30T05:38:02;16.00;99.90
9971;DHT22;5026;51.494;11.974;2022-08-30T05:40:28;16.20;99.90
9971;DHT22;5026;51.494;11.974;2022-08-30T05:42:57;16.50;99.90
9971;DHT22;5026;51.494;11.974;2022-08-30T05:45:24;16.60;99.90
9971;DHT22;5026;51.494;11.974;2022-08-30T05:55:13;19.90;99.90
9971;DHT22;5026;51.494;11.974;2022-08-30T05:57:40;19.70;99.90
9971;DHT22;5026;51.494;11.974;2022-08-30T06:00:10;20.50;99.90
9971;DHT22;5026;51.494;11.974;2022-08-30T06:02:38;21.50;99.40
9971;DHT22;5026;51.494;11.974;2022-08-30T06:05:05;21.30;98.50
9971;DHT22;5026;51.494;11.974;2022-08-30T06:10:00;21.00;98.70
9971;DHT22;5026;51.494;11.974;2022-08-30T06:12:27;20.60;98.70
9971;DHT22;5026;51.494;11.974;2022-08-30T06:14:54;20.40;99.00
9971;DHT22;5026;51.494;11.974;2022-08-30T06:17:22;20.50;99.00
9971;DHT22;5026;51.494;11.974;2022-08-30T06:19:49;20.60;99.00
9971;DHT22;5026;51.494;11.974;2022-08-30T06:22:16;20.90;98.80
9971;DHT22;5026;51.494;11.974;2022-08-30T06:24:43;21.00;98.60
9971;DHT22;5026;51.494;11.974;2022-08-30T06:27:10;20.60;98.60
9971;DHT22;5026;51.494;11.974;2022-08-30T06:32:04;19.90;99.50
9971;DHT22;5026;51.494;11.974;2022-08-30T06:34:33;20.30;99.50
9971;DHT22;5026;51.494;11.974;2022-08-30T06:41:54;20.50;98.90
9971;DHT22;5026;51.494;11.974;2022-08-30T06:44:21;20.60;99.00
9971;DHT22;5026;51.494;11.974;2022-08-30T06:46:48;20.20;99.20
9971;DHT22;5026;51.494;11.974;2022-08-30T06:51:43;20.00;99.50
9971;DHT22;5026;51.494;11.974;2022-08-30T06:54:11;20.10;99.70
9971;DHT22;5026;51.494;11.974;2022-08-30T06:56:39;20.40;99.60
9971;DHT22;5026;51.494;11.974;2022-08-30T07:01:33;22.60;98.30
9971;DHT22;5026;51.494;11.974;2022-08-30T07:06:28;22.40;97.40
9971;DHT22;5026;51.494;11.974;2022-08-30T07:08:56;22.30;97.30
9971;DHT22;5026;51.494;11.974;2022-08-30T07:11:31;22.30;97.30
9971;DHT22;5026;51.494;11.974;2022-08-30T07:13:59;23.10;96.80
9971;DHT22;5026;51.494;11.974;2022-08-30T07:16:27;24.20;96.60
9971;DHT22;5026;51.494;11.974;2022-08-30T07:18:54;27.70;94.30
9971;DHT22;5026;51.494;11.974;2022-08-30T07:21:24;28.10;94.20
9971;DHT22;5026;51.494;11.974;2022-08-30T07:23:53;31.30;89.30
9971;DHT22;5026;51.494;11.974;2022-08-30T07:26:23;31.00;81.30
9971;DHT22;5026;51.494;11.974;2022-08-30T07:28:51;29.10;83.00
9971;DHT22;5026;51.494;11.974;2022-08-30T07:31:19;26.90;85.00
9971;DHT22;5026;51.494;11.974;2022-08-30T07:33:47;28.40;87.80
9971;DHT22;5026;51.494;11.974;2022-08-30T07:36:14;28.50;84.20
9971;DHT22;5026;51.494;11.974;2022-08-30T07:38:43;27.10;85.00
9971;DHT22;5026;51.494;11.974;2022-08-30T07:41:15;25.70;86.90
9971;DHT22;5026;51.494;11.974;2022-08-30T07:43:46;25.10;88.70
9971;DHT22;5026;51.494;11.974;2022-08-30T07:46:13;24.40;90.40
9971;DHT22;5026;51.494;11.974;2022-08-30T07:48:40;24.30;91.00
9971;DHT22;5026;51.494;11.974;2022-08-30T07:51:09;24.10;91.00
9971;DHT22;5026;51.494;11.974;2022-08-30T07:53:37;23.50;91.70
9971;DHT22;5026;51.494;11.974;2022-08-30T07:56:04;25.60;91.50
9971;DHT22;5026;51.494;11.974;2022-08-30T08:00:59;29.90;88.20
9971;DHT22;5026;51.494;11.974;2022-08-30T08:03:27;33.70;79.90
9971;DHT22;5026;51.494;11.974;2022-08-30T08:05:55;36.60;71.80
9971;DHT22;5026;51.494;11.974;2022-08-30T08:08:22;37.00;67.50
9971;DHT22;5026;51.494;11.974;2022-08-30T08:10:49;38.20;65.00
9971;DHT22;5026;51.494;11.974;2022-08-30T08:13:16;38.80;62.90
9971;DHT22;5026;51.494;11.974;2022-08-30T08:15:43;38.70;61.40
9971;DHT22;5026;51.494;11.974;2022-08-30T08:18:12;35.90;61.90
9971;DHT22;5026;51.494;11.974;2022-08-30T08:20:39;36.50;62.10
9971;DHT22;5026;51.494;11.974;2022-08-30T08:23:06;36.50;62.40
9971;DHT22;5026;51.494;11.974;2022-08-30T08:25:37;36.90;61.60
9971;DHT22;5026;51.494;11.974;2022-08-30T08:28:04;39.90;60.70
9971;DHT22;5026;51.494;11.974;2022-08-30T08:30:33;40.20;58.00
9971;DHT22;5026;51.494;11.974;2022-08-30T08:33:00;39.20;57.10
9971;DHT22;5026;51.494;11.974;2022-08-30T08:35:29;39.90;56.60
9971;DHT22;5026;51.494;11.974;2022-08-30T08:37:57;41.10;56.90
9971;DHT22;5026;51.494;11.974;2022-08-30T08:40:25;39.30;56.80
9971;DHT22;5026;51.494;11.974;2022-08-30T08:43:02;39.90;57.30
9971;DHT22;5026;51.494;11.974;2022-08-30T08:45:50;40.30;56.40
9971;DHT22;5026;51.494;11.974;2022-08-30T08:48:31;37.30;57.10
9971;DHT22;5026;51.494;11.974;2022-08-30T08:51:01;36.90;59.00
9971;DHT22;5026;51.494;11.974;2022-08-30T08:53:47;37.50;59.70
9971;DHT22;5026;51.494;11.974;2022-08-30T08:56:17;35.10;57.80
9971;DHT22;5026;51.494;11.974;2022-08-30T08:58:48;33.50;61.80
9971;DHT22;5026;51.494;11.974;2022-08-30T09:01:18;30.90;62.80
9971;DHT22;5026;51.494;11.974;2022-08-30T09:03:46;30.80;64.90
9971;DHT22;5026;51.494;11.974;2022-08-30T09:06:32;27.70;68.20
9971;DHT22;5026;51.494;11.974;2022-08-30T09:09:02;27.90;68.60
9971;DHT22;5026;51.494;11.974;2022-08-30T09:11:31;27.10;68.70
9971;DHT22;5026;51.494;11.974;2022-08-30T09:14:09;27.40;69.50
9971;DHT22;5026;51.494;11.974;2022-08-30T09:16:48;28.00;70.50
9971;DHT22;5026;51.494;11.974;2022-08-30T09:19:31;28.10;70.70
9971;DHT22;5026;51.494;11.974;2022-08-30T09:22:03;29.00;69.50
9971;DHT22;5026;51.494;11.974;2022-08-30T09:24:39;29.60;69.20
9971;DHT22;5026;51.494;11.974;2022-08-30T09:27:16;27.30;69.10
9971;DHT22;5026;51.494;11.974;2022-08-30T09:29:51;26.70;71.70
9971;DHT22;5026;51.494;11.974;2022-08-30T09:32:30;25.60;71.80
9971;DHT22;5026;51.494;11.974;2022-08-30T09:34:57;26.00;73.00
9971;DHT22;5026;51.494;11.974;2022-08-30T09:37:29;26.40;73.50
9971;DHT22;5026;51.494;11.974;2022-08-30T09:39:57;25.00;75.90
9971;DHT22;5026;51.494;11.974;2022-08-30T09:42:27;25.20;76.50
9971;DHT22;5026;51.494;11.974;2022-08-30T09:44:56;24.50;78.50
9971;DHT22;5026;51.494;11.974;2022-08-30T09:47:36;24.00;78.50
9971;DHT22;5026;51.494;11.974;2022-08-30T09:50:08;22.70;82.80
9971;DHT22;5026;51.494;11.974;2022-08-30T09:52:56;22.80;85.60
9971;DHT22;5026;51.494;11.974;2022-08-30T09:55:45;23.10;86.70
9971;DHT22;5026;51.494;11.974;2022-08-30T09:58:19;23.60;86.50
9971;DHT22;5026;51.494;11.974;2022-08-30T10:00:54;22.00;88.60
9971;DHT22;5026;51.494;11.974;2022-08-30T10:03:26;22.00;90.30
9971;DHT22;5026;51.494;11.974;2022-08-30T10:06:00;22.70;90.70
9971;DHT22;5026;51.494;11.974;2022-08-30T10:08:38;22.90;90.30
9971;DHT22;5026;51.494;11.974;2022-08-30T10:11:12;22.90;90.20
9971;DHT22;5026;51.494;11.974;2022-08-30T10:16:33;23.10;90.10
9971;DHT22;5026;51.494;11.974;2022-08-30T10:19:08;23.00;90.60
9971;DHT22;5026;51.494;11.974;2022-08-30T10:21:41;22.90;90.60
9971;DHT22;5026;51.494;11.974;2022-08-30T10:24:13;22.90;90.90
9971;DHT22;5026;51.494;11.974;2022-08-30T10:26:46;23.30;91.00
9971;DHT22;5026;51.494;11.974;2022-08-30T10:29:20;23.50;90.70
9971;DHT22;5026;51.494;11.974;2022-08-30T10:31:52;22.10;90.40
9971;DHT22;5026;51.494;11.974;2022-08-30T10:34:23;23.20;90.80
9971;DHT22;5026;51.494;11.974;2022-08-30T10:36:54;23.30;90.70
9971;DHT22;5026;51.494;11.974;2022-08-30T10:39:30;22.50;91.30
9971;DHT22;5026;51.494;11.974;2022-08-30T10:42:02;22.00;91.90
9971;DHT22;5026;51.494;11.974;2022-08-30T10:44:33;22.00;91.80
9971;DHT22;5026;51.494;11.974;2022-08-30T10:47:12;21.90;92.20
9971;DHT22;5026;51.494;11.974;2022-08-30T10:49:44;22.50;92.00
9971;DHT22;5026;51.494;11.974;2022-08-30T10:52:21;22.80;91.70
9971;DHT22;5026;51.494;11.974;2022-08-30T10:54:53;24.10;92.60
9971;DHT22;5026;51.494;11.974;2022-08-30T10:57:23;22.40;91.80
9971;DHT22;5026;51.494;11.974;2022-08-30T10:59:52;22.90;91.50
9971;DHT22;5026;51.494;11.974;2022-08-30T11:02:33;22.80;91.30
9971;DHT22;5026;51.494;11.974;2022-08-30T11:05:27;22.30;91.20
9971;DHT22;5026;51.494;11.974;2022-08-30T11:08:05;22.30;91.60
9971;DHT22;5026;51.494;11.974;2022-08-30T11:10:45;22.90;91.60
9971;DHT22;5026;51.494;11.974;2022-08-30T11:13:16;22.80;91.00
9971;DHT22;5026;51.494;11.974;2022-08-30T11:16:00;22.10;91.70
9971;DHT22;5026;51.494;11.974;2022-08-30T11:18:29;22.40;91.70
9971;DHT22;5026;51.494;11.974;2022-08-30T11:21:16;23.00;91.40
9971;DHT22;5026;51.494;11.974;2022-08-30T11:23:58;23.30;90.80
9971;DHT22;5026;51.494;11.974;2022-08-30T11:26:52;22.40;91.00
9971;DHT22;5026;51.494;11.974;2022-08-30T11:29:34;22.30;91.50
9971;DHT22;5026;51.494;11.974;2022-08-30T11:37:34;22.70;91.00
9971;DHT22;5026;51.494;11.974;2022-08-30T11:40:06;22.70;91.00
9971;DHT22;5026;51.494;11.974;2022-08-30T11:42:41;22.80;90.70
9971;DHT22;5026;51.494;11.974;2022-08-30T11:48:38;22.80;90.90
9971;DHT22;5026;51.494;11.974;2022-08-30T11:51:12;23.50;90.90
9971;DHT22;5026;51.494;11.974;2022-08-30T11:53:49;24.20;90.50
9971;DHT22;5026;51.494;11.974;2022-08-30T11:56:20;24.40;90.10
9971;DHT22;5026;51.494;11.974;2022-08-30T11:58:53;24.30;89.90
9971;DHT22;5026;51.494;11.974;2022-08-30T12:01:34;23.90;89.80
9971;DHT22;5026;51.494;11.974;2022-08-30T12:04:08;23.50;90.40
9971;DHT22;5026;51.494;11.974;2022-08-30T12:06:47;23.60;90.70
9971;DHT22;5026;51.494;11.974;2022-08-30T12:12:48;23.00;90.90
9971;DHT22;5026;51.494;11.974;2022-08-30T12:18:15;23.50;90.80
9971;DHT22;5026;51.494;11.974;2022-08-30T12:21:03;23.80;90.70
9971;DHT22;5026;51.494;11.974;2022-08-30T12:23:45;24.30;90.20
9971;DHT22;5026;51.494;11.974;2022-08-30T12:26:27;24.00;89.70
9971;DHT22;5026;51.494;11.974;2022-08-30T12:31:54;23.50;89.30
9971;DHT22;5026;51.494;11.974;2022-08-30T12:34:24;22.70;89.40
9971;DHT22;5026;51.494;11.974;2022-08-30T12:36:55;23.00;90.00
9971;DHT22;5026;51.494;11.974;2022-08-30T12:39:26;23.60;90.10
9971;DHT22;5026;51.494;11.974;2022-08-30T12:44:23;23.50;90.40
9971;DHT22;5026;51.494;11.974;2022-08-30T12:46:55;23.70;90.40
9971;DHT22;5026;51.494;11.974;2022-08-30T12:49:25;23.00;90.50
9971;DHT22;5026;51.494;11.974;2022-08-30T12:51:53;23.00;90.70
9971;DHT22;5026;51.494;11.974;2022-08-30T12:54:22;23.10;90.80
9971;DHT22;5026;51.494;11.974;2022-08-30T12:56:56;23.20;90.70
9971;DHT22;5026;51.494;11.974;2022-08-30T12:59:56;23.20;90.40
9971;DHT22;5026;51.494;11.974;2022-08-30T13:02:26;23.20;90.40
9971;DHT22;5026;51.494;11.974;2022-08-30T13:04:55;22.80;90.60
9971;DHT22;5026;51.494;11.974;2022-08-30T13:07:31;22.40;90.90
9971;DHT22;5026;51.494;11.974;2022-08-30T13:10:03;22.60;91.00
9971;DHT22;5026;51.494;11.974;2022-08-30T13:12:31;22.60;90.80
9971;DHT22;5026;51.494;11.974;2022-08-30T13:15:16;22.70;90.80
9971;DHT22;5026;51.494;11.974;2022-08-30T13:17:45;22.60;90.50
9971;DHT22;5026;51.494;11.974;2022-08-30T13:20:24;23.00;90.60
9971;DHT22;5026;51.494;11.974;2022-08-30T13:23:04;23.00;90.70
9971;DHT22;5026;51.494;11.974;2022-08-30T13:25:33;23.00;90.60
9971;DHT22;5026;51.494;11.974;2022-08-30T13:28:01;23.00;90.40
9971;DHT22;5026;51.494;11.974;2022-08-30T13:30:28;23.00;90.60
9971;DHT22;5026;51.494;11.974;2022-08-30T13:32:58;23.00;90.50
9971;DHT22;5026;51.494;11.974;2022-08-30T13:35:26;23.10;90.40
9971;DHT22;5026;51.494;11.974;2022-08-30T13:37:54;23.20;90.20
9971;DHT22;5026;51.494;11.974;2022-08-30T13:42:54;23.10;90.30
9971;DHT22;5026;51.494;11.974;2022-08-30T13:47:49;22.80;90.50
9971;DHT22;5026;51.494;11.974;2022-08-30T13:50:17;22.90;90.50
9971;DHT22;5026;51.494;11.974;2022-08-30T13:52:44;22.70;90.10
9971;DHT22;5026;51.494;11.974;2022-08-30T13:57:39;22.90;90.30
9971;DHT22;5026;51.494;11.974;2022-08-30T14:00:09;23.10;90.20
9971;DHT22;5026;51.494;11.974;2022-08-30T14:02:37;23.20;90.30
9971;DHT22;5026;51.494;11.974;2022-08-30T14:05:07;23.30;90.00
9971;DHT22;5026;51.494;11.974;2022-08-30T14:07:35;23.30;89.90
9971;DHT22;5026;51.494;11.974;2022-08-30T14:10:02;23.00;89.80
9971;DHT22;5026;51.494;11.974;2022-08-30T14:12:29;22.90;90.30
9971;DHT22;5026;51.494;11.974;2022-08-30T14:14:56;23.20;90.00
9971;DHT22;5026;51.494;11.974;2022-08-30T14:17:23;23.30;89.60
9971;DHT22;5026;51.494;11.974;2022-08-30T14:19:54;23.20;89.20
9971;DHT22;5026;51.494;11.974;2022-08-30T14:22:21;23.20;89.30
9971;DHT22;5026;51.494;11.974;2022-08-30T14:24:50;23.00;89.20
9971;DHT22;5026;51.494;11.974;2022-08-30T14:27:18;22.80;90.00
9971;DHT22;5026;51.494;11.974;2022-08-30T14:29:45;22.60;90.40
9971;DHT22;5026;51.494;11.974;2022-08-30T14:32:14;22.40;90.40
9971;DHT22;5026;51.494;11.974;2022-08-30T14:39:35;22.70;89.70
9971;DHT22;5026;51.494;11.974;2022-08-30T14:42:04;22.80;89.40
9971;DHT22;5026;51.494;11.974;2022-08-30T14:44:32;22.80;88.60
9971;DHT22;5026;51.494;11.974;2022-08-30T14:46:59;22.50;88.50
9971;DHT22;5026;51.494;11.974;2022-08-30T14:49:26;22.40;89.10
9971;DHT22;5026;51.494;11.974;2022-08-30T14:54:21;22.40;89.00
9971;DHT22;5026;51.494;11.974;2022-08-30T14:56:48;22.30;87.90
9971;DHT22;5026;51.494;11.974;2022-08-30T14:59:17;22.20;87.80
9971;DHT22;5026;51.494;11.974;2022-08-30T15:01:44;22.30;88.00
9971;DHT22;5026;51.494;11.974;2022-08-30T15:04:12;22.20;87.60
9971;DHT22;5026;51.494;11.974;2022-08-30T15:06:42;22.30;87.70
9971;DHT22;5026;51.494;11.974;2022-08-30T15:09:11;22.20;87.30
9971;DHT22;5026;51.494;11.974;2022-08-30T15:11:38;22.20;87.90
9971;DHT22;5026;51.494;11.974;2022-08-30T15:14:06;22.30;87.90
9971;DHT22;5026;51.494;11.974;2022-08-30T15:16:35;22.30;86.70
9971;DHT22;5026;51.494;11.974;2022-08-30T15:19:04;22.40;86.70
9971;DHT22;5026;51.494;11.974;2022-08-30T15:21:34;22.30;85.80
9971;DHT22;5026;51.494;11.974;2022-08-30T15:24:02;22.40;86.20
9971;DHT22;5026;51.494;11.974;2022-08-30T15:26:30;22.50;86.90
9971;DHT22;5026;51.494;11.974;2022-08-30T15:28:57;22.40;86.90
9971;DHT22;5026;51.494;11.974;2022-08-30T15:31:26;22.50;87.30
9971;DHT22;5026;51.494;11.974;2022-08-30T15:33:55;22.30;87.10
9971;DHT22;5026;51.494;11.974;2022-08-30T15:38:51;22.20;87.40
9971;DHT22;5026;51.494;11.974;2022-08-30T15:41:18;22.40;87.30
9971;DHT22;5026;51.494;11.974;2022-08-30T15:43:45;22.40;87.70
9971;DHT22;5026;51.494;11.974;2022-08-30T15:46:20;22.50;87.50
9971;DHT22;5026;51.494;11.974;2022-08-30T15:48:48;22.30;87.30
9971;DHT22;5026;51.494;11.974;2022-08-30T15:51:18;22.30;87.20
9971;DHT22;5026;51.494;11.974;2022-08-30T15:53:45;22.20;87.10
9971;DHT22;5026;51.494;11.974;2022-08-30T15:56:12;22.00;87.20
9971;DHT22;5026;51.494;11.974;2022-08-30T15:58:40;22.10;87.10
9971;DHT22;5026;51.494;11.974;2022-08-30T16:01:08;22.10;86.40
9971;DHT22;5026;51.494;11.974;2022-08-30T16:03:36;22.10;86.30
9971;DHT22;5026;51.494;11.974;2022-08-30T16:06:09;22.20;86.00
9971;DHT22;5026;51.494;11.974;2022-08-30T16:08:38;22.20;86.30
9971;DHT22;5026;51.494;11.974;2022-08-30T16:11:05;22.10;86.50
9971;DHT22;5026;51.494;11.974;2022-08-30T16:16:00;22.20;86.80
9971;DHT22;5026;51.494;11.974;2022-08-30T16:18:27;22.10;86.40
9971;DHT22;5026;51.494;11.974;2022-08-30T16:21:02;22.10;86.00
9971;DHT22;5026;51.494;11.974;2022-08-30T16:25:57;22.10;85.10
9971;DHT22;5026;51.494;11.974;2022-08-30T16:28:24;22.00;84.80
9971;DHT22;5026;51.494;11.974;2022-08-30T16:30:52;22.00;84.80
9971;DHT22;5026;51.494;11.974;2022-08-30T16:33:19;22.10;84.80
9971;DHT22;5026;51.494;11.974;2022-08-30T16:35:49;22.00;85.50
9971;DHT22;5026;51.494;11.974;2022-08-30T16:43:12;21.90;84.80
9971;DHT22;5026;51.494;11.974;2022-08-30T16:45:39;21.90;85.60
9971;DHT22;5026;51.494;11.974;2022-08-30T16:48:07;21.80;85.90
9971;DHT22;5026;51.494;11.974;2022-08-30T16:50:35;21.80;86.20
9971;DHT22;5026;51.494;11.974;2022-08-30T16:55:29;21.70;86.20
9971;DHT22;5026;51.494;11.974;2022-08-30T16:57:56;23.40;87.40
9971;DHT22;5026;51.494;11.974;2022-08-30T17:00:25;21.60;86.00
9971;DHT22;5026;51.494;11.974;2022-08-30T17:05:19;21.60;84.60
9971;DHT22;5026;51.494;11.974;2022-08-30T17:07:46;21.60;84.70
9971;DHT22;5026;51.494;11.974;2022-08-30T17:10:13;21.70;84.80
9971;DHT22;5026;51.494;11.974;2022-08-30T17:12:40;21.70;84.20
9971;DHT22;5026;51.494;11.974;2022-08-30T17:15:08;21.60;84.20
9971;DHT22;5026;51.494;11.974;2022-08-30T17:17:37;21.60;84.20
9971;DHT22;5026;51.494;11.974;2022-08-30T17:20:05;21.50;84.30
9971;DHT22;5026;51.494;11.974;2022-08-30T17:27:27;21.50;84.60
9971;DHT22;5026;51.494;11.974;2022-08-30T17:29:54;21.40;84.40
9971;DHT22;5026;51.494;11.974;2022-08-30T17:34:50;21.30;84.60
9971;DHT22;5026;51.494;11.974;2022-08-30T17:37:17;21.20;84.70
9971;DHT22;5026;51.494;11.974;2022-08-30T17:47:07;20.90;85.40
9971;DHT22;5026;51.494;11.974;2022-08-30T17:49:34;20.80;85.30